sensor_id;sensor_type;location;lat;lon;timestamp;P1;P2;P0
42510;PMS7003;28141;51.120;17.114;2023-03-09T00:00:34;21;12;8
42510;PMS7003;28141;51.120;17.114;2023-03-09T00:03:48;19;11;8
42510;PMS7003;28141;51.120;17.114;2023-03-09T00:07:27;21;14;8
42510;PMS7003;28141;51.120;17.114;2023-03-09T00:10:44;26;15;9
42510;PMS7003;28141;51.120;17.114;2023-03-09T00:13:58;20;11;8
42510;PMS7003;28141;51.120;17.114;2023-03-09T00:17:11;23;14;9
42510;PMS7003;28141;51.120;17.114;2023-03-09T00:20:56;21;13;9
42510;PMS7003;28141;51.120;17.114;2023-03-09T00:24:10;23;12;9
42510;PMS7003;28141;51.120;17.114;2023-03-09T00:27:26;25;15;9
42510;PMS7003;28141;51.120;17.114;2023-03-09T00:30:40;20;12;9
42510;PMS7003;28141;51.120;17.114;2023-03-09T00:34:19;26;14;10
42510;PMS7003;28141;51.120;17.114;2023-03-09T00:37:35;25;14;8
42510;PMS7003;28141;51.120;17.114;2023-03-09T00:40:53;23;14;9
42510;PMS7003;28141;51.120;17.114;2023-03-09T00:44:07;23;14;9
42510;PMS7003;28141;51.120;17.114;2023-03-09T00:47:47;22;14;9
42510;PMS7003;28141;51.120;17.114;2023-03-09T00:51:01;24;14;9
42510;PMS7003;28141;51.120;17.114;2023-03-09T00:54:15;24;15;8
42510;PMS7003;28141;51.120;17.114;2023-03-09T00:57:29;22;13;11
42510;PMS7003;28141;51.120;17.114;2023-03-09T01:01:10;24;15;11
42510;PMS7003;28141;51.120;17.114;2023-03-09T01:04:25;24;15;11
42510;PMS7003;28141;51.120;17.114;2023-03-09T01:07:39;23;15;10
42510;PMS7003;28141;51.120;17.114;2023-03-09T01:10:54;24;16;10
42510;PMS7003;28141;51.120;17.114;2023-03-09T01:14:33;20;13;9
42510;PMS7003;28141;51.120;17.114;2023-03-09T01:17:48;23;15;9
42510;PMS7003;28141;51.120;17.114;2023-03-09T01:21:02;24;16;9
42510;PMS7003;28141;51.120;17.114;2023-03-09T01:24:17;25;15;10
42510;PMS7003;28141;51.120;17.114;2023-03-09T01:27:55;23;14;9
42510;PMS7003;28141;51.120;17.114;2023-03-09T01:31:10;19;13;9
42510;PMS7003;28141;51.120;17.114;2023-03-09T01:34:25;25;15;10
42510;PMS7003;28141;51.120;17.114;2023-03-09T01:37:40;26;13;9
42510;PMS7003;28141;51.120;17.114;2023-03-09T01:41:19;26;15;9
42510;PMS7003;28141;51.120;17.114;2023-03-09T01:44:35;26;14;10
42510;PMS7003;28141;51.120;17.114;2023-03-09T01:47:49;26;14;10
42510;PMS7003;28141;51.120;17.114;2023-03-09T01:51:03;23;13;9
42510;PMS7003;28141;51.120;17.114;2023-03-09T01:54:47;23;12;8
42510;PMS7003;28141;51.120;17.114;2023-03-09T01:58:09;23;13;8
42510;PMS7003;28141;51.120;17.114;2023-03-09T02:01:32;25;15;10
42510;PMS7003;28141;51.120;17.114;2023-03-09T02:05:11;22;13;8
42510;PMS7003;28141;51.120;17.114;2023-03-09T02:08:31;22;14;10
42510;PMS7003;28141;51.120;17.114;2023-03-09T02:11:46;26;13;9
42510;PMS7003;28141;51.120;17.114;2023-03-09T02:15:27;22;14;9
42510;PMS7003;28141;51.120;17.114;2023-03-09T02:18:42;23;14;11
42510;PMS7003;28141;51.120;17.114;2023-03-09T02:21:56;25;15;9
42510;PMS7003;28141;51.120;17.114;2023-03-09T02:29:03;22;13;9
42510;PMS7003;28141;51.120;17.114;2023-03-09T02:32:18;22;14;9
42510;PMS7003;28141;51.120;17.114;2023-03-09T02:35:32;21;12;8
42510;PMS7003;28141;51.120;17.114;2023-03-09T02:38:47;25;14;9
42510;PMS7003;28141;51.120;17.114;2023-03-09T02:42:25;26;16;10
42510;PMS7003;28141;51.120;17.114;2023-03-09T02:45:41;23;14;9
42510;PMS7003;28141;51.120;17.114;2023-03-09T02:48:55;23;15;9
42510;PMS7003;28141;51.120;17.114;2023-03-09T02:52:10;22;13;9
42510;PMS7003;28141;51.120;17.114;2023-03-09T02:55:49;25;14;10
42510;PMS7003;28141;51.120;17.114;2023-03-09T02:59:03;26;14;10
42510;PMS7003;28141;51.120;17.114;2023-03-09T03:02:17;22;13;8
42510;PMS7003;28141;51.120;17.114;2023-03-09T03:05:31;28;16;11
42510;PMS7003;28141;51.120;17.114;2023-03-09T03:09:09;24;15;10
42510;PMS7003;28141;51.120;17.114;2023-03-09T03:12:23;25;16;11
42510;PMS7003;28141;51.120;17.114;2023-03-09T03:15:37;23;14;9
42510;PMS7003;28141;51.120;17.114;2023-03-09T03:18:51;22;14;10
42510;PMS7003;28141;51.120;17.114;2023-03-09T03:22:05;25;15;10
42510;PMS7003;28141;51.120;17.114;2023-03-09T03:25:44;25;15;10
42510;PMS7003;28141;51.120;17.114;2023-03-09T03:28:58;25;16;10
42510;PMS7003;28141;51.120;17.114;2023-03-09T03:32:12;26;16;10
42510;PMS7003;28141;51.120;17.114;2023-03-09T03:35:26;26;16;10
42510;PMS7003;28141;51.120;17.114;2023-03-09T03:39:05;27;14;10
42510;PMS7003;28141;51.120;17.114;2023-03-09T03:42:18;28;16;11
42510;PMS7003;28141;51.120;17.114;2023-03-09T03:45:32;28;18;10
42510;PMS7003;28141;51.120;17.114;2023-03-09T03:48:46;23;16;10
42510;PMS7003;28141;51.120;17.114;2023-03-09T03:52:25;26;15;11
42510;PMS7003;28141;51.120;17.114;2023-03-09T03:55:39;27;15;11
42510;PMS7003;28141;51.120;17.114;2023-03-09T03:58:52;22;15;11
42510;PMS7003;28141;51.120;17.114;2023-03-09T04:02:06;27;17;9
42510;PMS7003;28141;51.120;17.114;2023-03-09T04:05:45;28;15;11
42510;PMS7003;28141;51.120;17.114;2023-03-09T04:08:59;24;14;10
42510;PMS7003;28141;51.120;17.114;2023-03-09T04:12:13;24;16;11
42510;PMS7003;28141;51.120;17.114;2023-03-09T04:15:27;24;16;11
42510;PMS7003;28141;51.120;17.114;2023-03-09T04:19:06;24;15;11
42510;PMS7003;28141;51.120;17.114;2023-03-09T04:22:20;25;17;11
42510;PMS7003;28141;51.120;17.114;2023-03-09T04:25:33;26;16;10
42510;PMS7003;28141;51.120;17.114;2023-03-09T04:28:47;28;17;12
42510;PMS7003;28141;51.120;17.114;2023-03-09T04:32:26;25;15;10
42510;PMS7003;28141;51.120;17.114;2023-03-09T04:35:40;24;16;10
42510;PMS7003;28141;51.120;17.114;2023-03-09T04:38:55;26;17;12
42510;PMS7003;28141;51.120;17.114;2023-03-09T04:42:09;25;13;9
42510;PMS7003;28141;51.120;17.114;2023-03-09T04:45:48;22;14;10
42510;PMS7003;28141;51.120;17.114;2023-03-09T04:49:01;27;16;10
42510;PMS7003;28141;51.120;17.114;2023-03-09T04:52:15;25;15;10
42510;PMS7003;28141;51.120;17.114;2023-03-09T04:55:29;25;15;10
42510;PMS7003;28141;51.120;17.114;2023-03-09T04:59:08;29;15;11
42510;PMS7003;28141;51.120;17.114;2023-03-09T05:02:21;24;15;10
42510;PMS7003;28141;51.120;17.114;2023-03-09T05:05:36;30;17;11
42510;PMS7003;28141;51.120;17.114;2023-03-09T05:08:50;26;15;10
42510;PMS7003;28141;51.120;17.114;2023-03-09T05:12:28;25;16;9
42510;PMS7003;28141;51.120;17.114;2023-03-09T05:15:44;26;17;10
42510;PMS7003;28141;51.120;17.114;2023-03-09T05:18:58;21;14;9
42510;PMS7003;28141;51.120;17.114;2023-03-09T05:22:12;27;15;10
42510;PMS7003;28141;51.120;17.114;2023-03-09T05:25:55;26;16;10
42510;PMS7003;28141;51.120;17.114;2023-03-09T05:29:10;26;16;10
42510;PMS7003;28141;51.120;17.114;2023-03-09T05:32:24;24;16;11
42510;PMS7003;28141;51.120;17.114;2023-03-09T05:35:38;24;14;8
42510;PMS7003;28141;51.120;17.114;2023-03-09T05:39:16;23;14;9
42510;PMS7003;28141;51.120;17.114;2023-03-09T05:42:31;26;16;11
42510;PMS7003;28141;51.120;17.114;2023-03-09T05:46:48;25;14;9
42510;PMS7003;28141;51.120;17.114;2023-03-09T05:50:03;28;14;9
42510;PMS7003;28141;51.120;17.114;2023-03-09T05:53:17;27;16;10
42510;PMS7003;28141;51.120;17.114;2023-03-09T05:56:31;25;15;10
42510;PMS7003;28141;51.120;17.114;2023-03-09T06:00:10;25;15;10
42510;PMS7003;28141;51.120;17.114;2023-03-09T06:03:25;25;15;9
42510;PMS7003;28141;51.120;17.114;2023-03-09T06:06:39;24;15;9
42510;PMS7003;28141;51.120;17.114;2023-03-09T06:09:53;21;11;8
42510;PMS7003;28141;51.120;17.114;2023-03-09T06:13:32;23;15;10
42510;PMS7003;28141;51.120;17.114;2023-03-09T06:16:46;23;14;8
42510;PMS7003;28141;51.120;17.114;2023-03-09T06:20:00;21;13;9
42510;PMS7003;28141;51.120;17.114;2023-03-09T06:23:15;18;11;8
42510;PMS7003;28141;51.120;17.114;2023-03-09T06:26:56;23;13;8
42510;PMS7003;28141;51.120;17.114;2023-03-09T06:30:11;19;11;7
42510;PMS7003;28141;51.120;17.114;2023-03-09T06:33:26;26;15;9
42510;PMS7003;28141;51.120;17.114;2023-03-09T06:36:40;20;12;8
42510;PMS7003;28141;51.120;17.114;2023-03-09T06:40:18;21;13;8
42510;PMS7003;28141;51.120;17.114;2023-03-09T06:43:32;22;13;10
42510;PMS7003;28141;51.120;17.114;2023-03-09T06:46:46;23;13;9
42510;PMS7003;28141;51.120;17.114;2023-03-09T06:50:00;23;13;9
42510;PMS7003;28141;51.120;17.114;2023-03-09T06:53:40;23;12;8
42510;PMS7003;28141;51.120;17.114;2023-03-09T06:56:53;24;13;8
42510;PMS7003;28141;51.120;17.114;2023-03-09T07:00:08;21;12;8
42510;PMS7003;28141;51.120;17.114;2023-03-09T07:03:24;17;10;7
42510;PMS7003;28141;51.120;17.114;2023-03-09T07:07:03;20;11;8
42510;PMS7003;28141;51.120;17.114;2023-03-09T07:10:17;22;12;9
42510;PMS7003;28141;51.120;17.114;2023-03-09T07:13:31;19;12;8
42510;PMS7003;28141;51.120;17.114;2023-03-09T07:16:50;24;12;8
42510;PMS7003;28141;51.120;17.114;2023-03-09T07:20:33;23;13;8
42510;PMS7003;28141;51.120;17.114;2023-03-09T07:23:47;22;14;8
42510;PMS7003;28141;51.120;17.114;2023-03-09T07:27:01;20;12;7
42510;PMS7003;28141;51.120;17.114;2023-03-09T07:30:16;21;12;8
42510;PMS7003;28141;51.120;17.114;2023-03-09T07:33:56;21;13;8
42510;PMS7003;28141;51.120;17.114;2023-03-09T07:37:10;21;13;8
42510;PMS7003;28141;51.120;17.114;2023-03-09T07:40:25;23;13;8
42510;PMS7003;28141;51.120;17.114;2023-03-09T07:43:39;21;11;7
42510;PMS7003;28141;51.120;17.114;2023-03-09T07:47:24;21;11;8
42510;PMS7003;28141;51.120;17.114;2023-03-09T07:50:38;23;14;8
42510;PMS7003;28141;51.120;17.114;2023-03-09T07:53:52;20;11;7
42510;PMS7003;28141;51.120;17.114;2023-03-09T07:57:06;22;12;8
42510;PMS7003;28141;51.120;17.114;2023-03-09T08:00:44;20;11;7
42510;PMS7003;28141;51.120;17.114;2023-03-09T08:03:59;19;10;6
42510;PMS7003;28141;51.120;17.114;2023-03-09T08:07:13;20;10;8
42510;PMS7003;28141;51.120;17.114;2023-03-09T08:10:27;22;11;6
42510;PMS7003;28141;51.120;17.114;2023-03-09T08:14:06;20;11;7
42510;PMS7003;28141;51.120;17.114;2023-03-09T08:17:20;18;10;6
42510;PMS7003;28141;51.120;17.114;2023-03-09T08:20:34;19;10;6
42510;PMS7003;28141;51.120;17.114;2023-03-09T08:23:49;18;10;6
42510;PMS7003;28141;51.120;17.114;2023-03-09T08:27:28;20;11;6
42510;PMS7003;28141;51.120;17.114;2023-03-09T08:30:42;14;7;5
42510;PMS7003;28141;51.120;17.114;2023-03-09T08:33:56;15;8;5
42510;PMS7003;28141;51.120;17.114;2023-03-09T08:37:10;14;7;5
42510;PMS7003;28141;51.120;17.114;2023-03-09T08:40:49;15;7;6
42510;PMS7003;28141;51.120;17.114;2023-03-09T08:44:02;17;8;5
42510;PMS7003;28141;51.120;17.114;2023-03-09T08:47:17;15;8;5
42510;PMS7003;28141;51.120;17.114;2023-03-09T08:50:31;16;8;4
42510;PMS7003;28141;51.120;17.114;2023-03-09T08:54:10;14;6;4
42510;PMS7003;28141;51.120;17.114;2023-03-09T08:57:24;15;7;4
42510;PMS7003;28141;51.120;17.114;2023-03-09T09:00:39;15;6;4
42510;PMS7003;28141;51.120;17.114;2023-03-09T09:03:53;16;7;4
42510;PMS7003;28141;51.120;17.114;2023-03-09T09:07:32;12;6;4
42510;PMS7003;28141;51.120;17.114;2023-03-09T09:10:46;14;6;4
42510;PMS7003;28141;51.120;17.114;2023-03-09T09:14:00;13;6;4
42510;PMS7003;28141;51.120;17.114;2023-03-09T09:17:14;13;5;3
42510;PMS7003;28141;51.120;17.114;2023-03-09T09:20:54;13;5;3
42510;PMS7003;28141;51.120;17.114;2023-03-09T09:24:08;11;4;2
42510;PMS7003;28141;51.120;17.114;2023-03-09T09:27:22;12;5;3
42510;PMS7003;28141;51.120;17.114;2023-03-09T09:30:36;11;4;2
42510;PMS7003;28141;51.120;17.114;2023-03-09T09:34:16;11;4;3
42510;PMS7003;28141;51.120;17.114;2023-03-09T09:37:30;13;5;3
42510;PMS7003;28141;51.120;17.114;2023-03-09T09:40:45;13;6;3
42510;PMS7003;28141;51.120;17.114;2023-03-09T09:44:00;11;4;3
42510;PMS7003;28141;51.120;17.114;2023-03-09T09:47:45;10;3;3
42510;PMS7003;28141;51.120;17.114;2023-03-09T10:01:48;11;4;2
42510;PMS7003;28141;51.120;17.114;2023-03-09T10:05:11;11;4;2
42510;PMS7003;28141;51.120;17.114;2023-03-09T10:08:57;14;5;3
42510;PMS7003;28141;51.120;17.114;2023-03-09T10:12:14;11;5;3
42510;PMS7003;28141;51.120;17.114;2023-03-09T10:15:30;12;5;3
42510;PMS7003;28141;51.120;17.114;2023-03-09T10:18:50;11;4;3
42510;PMS7003;28141;51.120;17.114;2023-03-09T10:22:35;11;4;2
42510;PMS7003;28141;51.120;17.114;2023-03-09T10:29:45;11;4;3
42510;PMS7003;28141;51.120;17.114;2023-03-09T10:33:19;12;4;3
42510;PMS7003;28141;51.120;17.114;2023-03-09T10:36:42;11;4;3
42510;PMS7003;28141;51.120;17.114;2023-03-09T10:40:06;11;3;2
42510;PMS7003;28141;51.120;17.114;2023-03-09T10:43:51;13;5;3
42510;PMS7003;28141;51.120;17.114;2023-03-09T10:47:10;11;4;2
42510;PMS7003;28141;51.120;17.114;2023-03-09T10:50:25;13;4;2
42510;PMS7003;28141;51.120;17.114;2023-03-09T10:53:42;11;4;3
42510;PMS7003;28141;51.120;17.114;2023-03-09T10:57:28;10;3;2
42510;PMS7003;28141;51.120;17.114;2023-03-09T11:00:48;12;4;3
42510;PMS7003;28141;51.120;17.114;2023-03-09T11:08:00;12;4;2
42510;PMS7003;28141;51.120;17.114;2023-03-09T11:11:24;11;4;3
42510;PMS7003;28141;51.120;17.114;2023-03-09T11:14:45;13;4;3
42510;PMS7003;28141;51.120;17.114;2023-03-09T11:18:31;11;3;3
42510;PMS7003;28141;51.120;17.114;2023-03-09T11:21:50;12;6;3
42510;PMS7003;28141;51.120;17.114;2023-03-09T11:25:32;12;5;3
42510;PMS7003;28141;51.120;17.114;2023-03-09T11:32:35;11;3;2
42510;PMS7003;28141;51.120;17.114;2023-03-09T11:35:53;10;4;2
42510;PMS7003;28141;51.120;17.114;2023-03-09T11:39:39;11;4;2
42510;PMS7003;28141;51.120;17.114;2023-03-09T11:47:03;13;3;3
42510;PMS7003;28141;51.120;17.114;2023-03-09T11:50:20;10;4;2
42510;PMS7003;28141;51.120;17.114;2023-03-09T11:57:33;13;5;2
42510;PMS7003;28141;51.120;17.114;2023-03-09T12:00:51;11;3;2
42510;PMS7003;28141;51.120;17.114;2023-03-09T12:04:11;12;4;3
42510;PMS7003;28141;51.120;17.114;2023-03-09T12:07:59;11;4;2
42510;PMS7003;28141;51.120;17.114;2023-03-09T12:11:23;11;4;2
42510;PMS7003;28141;51.120;17.114;2023-03-09T12:14:44;11;4;3
42510;PMS7003;28141;51.120;17.114;2023-03-09T12:25:21;16;7;4
42510;PMS7003;28141;51.120;17.114;2023-03-09T12:32:34;21;10;6
42510;PMS7003;28141;51.120;17.114;2023-03-09T12:35:56;18;10;7
42510;PMS7003;28141;51.120;17.114;2023-03-09T12:39:38;18;8;5
42510;PMS7003;28141;51.120;17.114;2023-03-09T12:57:09;16;8;5
42510;PMS7003;28141;51.120;17.114;2023-03-09T13:00:54;17;8;5
42510;PMS7003;28141;51.120;17.114;2023-03-09T13:04:20;17;6;5
42510;PMS7003;28141;51.120;17.114;2023-03-09T13:07:35;15;7;5
42510;PMS7003;28141;51.120;17.114;2023-03-09T13:18:21;14;7;5
42510;PMS7003;28141;51.120;17.114;2023-03-09T13:25:39;14;6;4
42510;PMS7003;28141;51.120;17.114;2023-03-09T13:28:56;14;4;3
42510;PMS7003;28141;51.120;17.114;2023-03-09T13:33:00;17;6;4
42510;PMS7003;28141;51.120;17.114;2023-03-09T13:36:07;13;6;4
42510;PMS7003;28141;51.120;17.114;2023-03-09T13:39:29;12;5;3
42510;PMS7003;28141;51.120;17.114;2023-03-09T13:43:14;16;6;4
42510;PMS7003;28141;51.120;17.114;2023-03-09T13:46:34;13;5;4
42510;PMS7003;28141;51.120;17.114;2023-03-09T13:49:49;16;6;3
42510;PMS7003;28141;51.120;17.114;2023-03-09T13:53:31;13;6;5
42510;PMS7003;28141;51.120;17.114;2023-03-09T13:56:56;13;6;4
42510;PMS7003;28141;51.120;17.114;2023-03-09T14:04:02;14;6;3
42510;PMS7003;28141;51.120;17.114;2023-03-09T14:07:17;15;6;4
42510;PMS7003;28141;51.120;17.114;2023-03-09T14:10:35;15;6;4
42510;PMS7003;28141;51.120;17.114;2023-03-09T14:13:55;14;7;4
42510;PMS7003;28141;51.120;17.114;2023-03-09T14:17:43;14;5;3
42510;PMS7003;28141;51.120;17.114;2023-03-09T14:20:57;14;6;3
42510;PMS7003;28141;51.120;17.114;2023-03-09T14:24:12;14;7;4
42510;PMS7003;28141;51.120;17.114;2023-03-09T14:27:35;14;6;3
42510;PMS7003;28141;51.120;17.114;2023-03-09T14:31:19;13;5;3
42510;PMS7003;28141;51.120;17.114;2023-03-09T14:34:34;14;6;4
42510;PMS7003;28141;51.120;17.114;2023-03-09T14:37:52;13;6;4
42510;PMS7003;28141;51.120;17.114;2023-03-09T14:41:12;14;7;4
42510;PMS7003;28141;51.120;17.114;2023-03-09T14:48:25;15;7;4
42510;PMS7003;28141;51.120;17.114;2023-03-09T14:51:39;15;7;4
42510;PMS7003;28141;51.120;17.114;2023-03-09T14:55:20;13;6;5
42510;PMS7003;28141;51.120;17.114;2023-03-09T14:58:36;12;5;4
42510;PMS7003;28141;51.120;17.114;2023-03-09T15:01:51;14;6;4
42510;PMS7003;28141;51.120;17.114;2023-03-09T15:05:12;15;7;4
42510;PMS7003;28141;51.120;17.114;2023-03-09T15:08:53;13;5;4
42510;PMS7003;28141;51.120;17.114;2023-03-09T15:12:07;13;6;3
42510;PMS7003;28141;51.120;17.114;2023-03-09T15:15:25;13;6;4
42510;PMS7003;28141;51.120;17.114;2023-03-09T15:18:40;12;5;4
42510;PMS7003;28141;51.120;17.114;2023-03-09T15:22:20;13;5;4
42510;PMS7003;28141;51.120;17.114;2023-03-09T15:25:34;14;7;4
42510;PMS7003;28141;51.120;17.114;2023-03-09T15:28:48;14;6;4
42510;PMS7003;28141;51.120;17.114;2023-03-09T15:32:02;15;7;4
42510;PMS7003;28141;51.120;17.114;2023-03-09T15:35:49;13;6;4
42510;PMS7003;28141;51.120;17.114;2023-03-09T15:39:03;13;6;4
42510;PMS7003;28141;51.120;17.114;2023-03-09T15:42:18;12;5;4
42510;PMS7003;28141;51.120;17.114;2023-03-09T15:45:32;14;6;4
42510;PMS7003;28141;51.120;17.114;2023-03-09T15:49:12;14;6;5
42510;PMS7003;28141;51.120;17.114;2023-03-09T15:52:26;14;6;4
42510;PMS7003;28141;51.120;17.114;2023-03-09T15:55:40;14;6;4
42510;PMS7003;28141;51.120;17.114;2023-03-09T15:58:55;13;5;4
42510;PMS7003;28141;51.120;17.114;2023-03-09T16:02:36;12;5;4
42510;PMS7003;28141;51.120;17.114;2023-03-09T16:05:50;13;6;4
42510;PMS7003;28141;51.120;17.114;2023-03-09T16:09:04;15;8;4
42510;PMS7003;28141;51.120;17.114;2023-03-09T16:12:18;14;7;5
42510;PMS7003;28141;51.120;17.114;2023-03-09T16:15:58;16;6;4
42510;PMS7003;28141;51.120;17.114;2023-03-09T16:19:12;13;6;4
42510;PMS7003;28141;51.120;17.114;2023-03-09T16:22:26;15;7;5
42510;PMS7003;28141;51.120;17.114;2023-03-09T16:25:40;13;6;4
42510;PMS7003;28141;51.120;17.114;2023-03-09T16:29:21;15;6;5
42510;PMS7003;28141;51.120;17.114;2023-03-09T16:32:39;13;6;5
42510;PMS7003;28141;51.120;17.114;2023-03-09T16:39:15;13;6;4
42510;PMS7003;28141;51.120;17.114;2023-03-09T16:42:56;15;7;5
42510;PMS7003;28141;51.120;17.114;2023-03-09T16:49:31;15;7;5
42510;PMS7003;28141;51.120;17.114;2023-03-09T16:52:45;18;7;5
42510;PMS7003;28141;51.120;17.114;2023-03-09T16:56:25;17;9;5
42510;PMS7003;28141;51.120;17.114;2023-03-09T16:59:39;16;9;6
42510;PMS7003;28141;51.120;17.114;2023-03-09T17:02:53;17;8;6
42510;PMS7003;28141;51.120;17.114;2023-03-09T17:09:54;16;9;5
42510;PMS7003;28141;51.120;17.114;2023-03-09T17:13:08;16;8;5
42510;PMS7003;28141;51.120;17.114;2023-03-09T17:16:22;14;7;5
42510;PMS7003;28141;51.120;17.114;2023-03-09T17:19:36;16;7;5
42510;PMS7003;28141;51.120;17.114;2023-03-09T17:23:17;18;8;6
42510;PMS7003;28141;51.120;17.114;2023-03-09T17:26:31;15;8;5
42510;PMS7003;28141;51.120;17.114;2023-03-09T17:29:45;16;9;6
42510;PMS7003;28141;51.120;17.114;2023-03-09T17:32:58;17;9;6
42510;PMS7003;28141;51.120;17.114;2023-03-09T17:36:37;16;7;6
42510;PMS7003;28141;51.120;17.114;2023-03-09T17:39:51;17;9;6
42510;PMS7003;28141;51.120;17.114;2023-03-09T17:43:05;17;10;7
42510;PMS7003;28141;51.120;17.114;2023-03-09T17:46:19;17;10;6
42510;PMS7003;28141;51.120;17.114;2023-03-09T17:50:00;15;7;5
42510;PMS7003;28141;51.120;17.114;2023-03-09T17:53:14;17;9;7
42510;PMS7003;28141;51.120;17.114;2023-03-09T17:56:28;20;12;8
42510;PMS7003;28141;51.120;17.114;2023-03-09T17:59:42;16;9;6
42510;PMS7003;28141;51.120;17.114;2023-03-09T18:03:21;17;9;5
42510;PMS7003;28141;51.120;17.114;2023-03-09T18:06:36;16;9;6
42510;PMS7003;28141;51.120;17.114;2023-03-09T18:09:50;17;10;6
42510;PMS7003;28141;51.120;17.114;2023-03-09T18:13:04;15;7;6
42510;PMS7003;28141;51.120;17.114;2023-03-09T18:16:45;19;10;6
42510;PMS7003;28141;51.120;17.114;2023-03-09T18:19:59;18;10;6
42510;PMS7003;28141;51.120;17.114;2023-03-09T18:23:13;16;10;6
42510;PMS7003;28141;51.120;17.114;2023-03-09T18:26:28;17;10;6
42510;PMS7003;28141;51.120;17.114;2023-03-09T18:30:08;18;11;7
42510;PMS7003;28141;51.120;17.114;2023-03-09T18:33:23;17;9;6
42510;PMS7003;28141;51.120;17.114;2023-03-09T18:36:37;17;9;5
42510;PMS7003;28141;51.120;17.114;2023-03-09T18:39:53;16;9;6
42510;PMS7003;28141;51.120;17.114;2023-03-09T18:43:33;17;10;6
42510;PMS7003;28141;51.120;17.114;2023-03-09T18:46:48;18;10;7
42510;PMS7003;28141;51.120;17.114;2023-03-09T18:50:02;18;10;7
42510;PMS7003;28141;51.120;17.114;2023-03-09T18:53:16;18;8;6
42510;PMS7003;28141;51.120;17.114;2023-03-09T18:56:54;18;10;7
42510;PMS7003;28141;51.120;17.114;2023-03-09T19:00:09;17;9;7
42510;PMS7003;28141;51.120;17.114;2023-03-09T19:03:24;17;9;7
42510;PMS7003;28141;51.120;17.114;2023-03-09T19:06:39;17;9;6
42510;PMS7003;28141;51.120;17.114;2023-03-09T19:10:17;18;9;7
42510;PMS7003;28141;51.120;17.114;2023-03-09T19:13:31;19;11;7
42510;PMS7003;28141;51.120;17.114;2023-03-09T19:16:45;17;9;6
42510;PMS7003;28141;51.120;17.114;2023-03-09T19:19:59;19;10;7
42510;PMS7003;28141;51.120;17.114;2023-03-09T19:23:38;19;9;7
42510;PMS7003;28141;51.120;17.114;2023-03-09T19:26:52;17;9;6
42510;PMS7003;28141;51.120;17.114;2023-03-09T19:30:06;20;8;5
42510;PMS7003;28141;51.120;17.114;2023-03-09T19:33:21;17;9;7
42510;PMS7003;28141;51.120;17.114;2023-03-09T19:36:59;18;9;7
42510;PMS7003;28141;51.120;17.114;2023-03-09T19:40:13;18;11;7
42510;PMS7003;28141;51.120;17.114;2023-03-09T19:43:27;21;12;7
42510;PMS7003;28141;51.120;17.114;2023-03-09T19:46:42;19;10;7
42510;PMS7003;28141;51.120;17.114;2023-03-09T19:50:22;19;11;8
42510;PMS7003;28141;51.120;17.114;2023-03-09T19:53:54;21;13;7
42510;PMS7003;28141;51.120;17.114;2023-03-09T19:56:58;20;13;8
42510;PMS7003;28141;51.120;17.114;2023-03-09T20:00:39;23;13;9
42510;PMS7003;28141;51.120;17.114;2023-03-09T20:03:53;20;12;8
42510;PMS7003;28141;51.120;17.114;2023-03-09T20:07:09;19;12;9
42510;PMS7003;28141;51.120;17.114;2023-03-09T20:10:23;20;11;7
42510;PMS7003;28141;51.120;17.114;2023-03-09T20:14:01;20;12;9
42510;PMS7003;28141;51.120;17.114;2023-03-09T20:17:15;22;11;7
42510;PMS7003;28141;51.120;17.114;2023-03-09T20:20:29;21;12;8
42510;PMS7003;28141;51.120;17.114;2023-03-09T20:23:43;19;12;8
42510;PMS7003;28141;51.120;17.114;2023-03-09T20:27:22;21;12;8
42510;PMS7003;28141;51.120;17.114;2023-03-09T20:30:39;21;12;9
42510;PMS7003;28141;51.120;17.114;2023-03-09T20:33:54;24;14;8
42510;PMS7003;28141;51.120;17.114;2023-03-09T20:37:09;21;13;9
42510;PMS7003;28141;51.120;17.114;2023-03-09T20:40:51;21;12;9
42510;PMS7003;28141;51.120;17.114;2023-03-09T20:44:06;25;16;9
42510;PMS7003;28141;51.120;17.114;2023-03-09T20:47:21;21;11;8
42510;PMS7003;28141;51.120;17.114;2023-03-09T20:50:35;23;13;9
42510;PMS7003;28141;51.120;17.114;2023-03-09T20:54:17;25;14;9
42510;PMS7003;28141;51.120;17.114;2023-03-09T20:57:36;21;13;9
42510;PMS7003;28141;51.120;17.114;2023-03-09T21:00:50;22;15;10
42510;PMS7003;28141;51.120;17.114;2023-03-09T21:04:04;20;12;9
42510;PMS7003;28141;51.120;17.114;2023-03-09T21:07:42;22;13;10
42510;PMS7003;28141;51.120;17.114;2023-03-09T21:10:56;23;15;8
42510;PMS7003;28141;51.120;17.114;2023-03-09T21:14:10;26;14;9
42510;PMS7003;28141;51.120;17.114;2023-03-09T21:17:24;20;12;8
42510;PMS7003;28141;51.120;17.114;2023-03-09T21:21:02;22;14;8
42510;PMS7003;28141;51.120;17.114;2023-03-09T21:24:17;21;14;9
42510;PMS7003;28141;51.120;17.114;2023-03-09T21:27:32;24;13;9
42510;PMS7003;28141;51.120;17.114;2023-03-09T21:30:46;24;15;10
42510;PMS7003;28141;51.120;17.114;2023-03-09T21:34:24;20;13;9
42510;PMS7003;28141;51.120;17.114;2023-03-09T21:37:38;23;14;10
42510;PMS7003;28141;51.120;17.114;2023-03-09T21:40:52;20;12;8
42510;PMS7003;28141;51.120;17.114;2023-03-09T21:44:09;23;14;9
42510;PMS7003;28141;51.120;17.114;2023-03-09T21:47:48;23;14;9
42510;PMS7003;28141;51.120;17.114;2023-03-09T21:51:05;24;16;9
42510;PMS7003;28141;51.120;17.114;2023-03-09T21:54:19;20;12;9
42510;PMS7003;28141;51.120;17.114;2023-03-09T21:57:33;23;15;9
42510;PMS7003;28141;51.120;17.114;2023-03-09T22:01:13;23;14;8
42510;PMS7003;28141;51.120;17.114;2023-03-09T22:04:29;21;12;9
42510;PMS7003;28141;51.120;17.114;2023-03-09T22:07:44;25;13;9
42510;PMS7003;28141;51.120;17.114;2023-03-09T22:10:58;23;15;9
42510;PMS7003;28141;51.120;17.114;2023-03-09T22:14:36;22;14;10
42510;PMS7003;28141;51.120;17.114;2023-03-09T22:17:50;23;15;11
42510;PMS7003;28141;51.120;17.114;2023-03-09T22:21:04;20;11;9
42510;PMS7003;28141;51.120;17.114;2023-03-09T22:24:19;24;15;10
42510;PMS7003;28141;51.120;17.114;2023-03-09T22:27:57;25;16;10
42510;PMS7003;28141;51.120;17.114;2023-03-09T22:31:12;22;13;9
42510;PMS7003;28141;51.120;17.114;2023-03-09T22:34:27;26;16;10
42510;PMS7003;28141;51.120;17.114;2023-03-09T22:37:41;25;15;10
42510;PMS7003;28141;51.120;17.114;2023-03-09T22:41:21;24;15;11
42510;PMS7003;28141;51.120;17.114;2023-03-09T22:44:36;24;16;10
42510;PMS7003;28141;51.120;17.114;2023-03-09T22:47:50;21;13;9
42510;PMS7003;28141;51.120;17.114;2023-03-09T22:51:05;23;15;9
42510;PMS7003;28141;51.120;17.114;2023-03-09T22:54:45;22;13;9
42510;PMS7003;28141;51.120;17.114;2023-03-09T22:58:00;22;14;9
42510;PMS7003;28141;51.120;17.114;2023-03-09T23:01:21;23;15;11
42510;PMS7003;28141;51.120;17.114;2023-03-09T23:05:04;24;16;10
42510;PMS7003;28141;51.120;17.114;2023-03-09T23:08:19;23;15;9